createdAt,value
2022-09-04T06:21:33.790Z,90.80
2022-09-04T06:24:31.911Z,90.60
2022-09-04T06:27:29.743Z,90.60
2022-09-04T06:30:06.458Z,90.50
2022-09-04T06:33:12.295Z,90.60
2022-09-04T06:36:26.480Z,90.30
2022-09-04T06:39:08.304Z,90.00
2022-09-04T06:42:21.558Z,89.70
2022-09-04T06:45:16.581Z,89.40
2022-09-04T06:48:22.411Z,89.10
2022-09-04T06:51:08.718Z,88.90
2022-09-04T06:54:00.239Z,88.90
2022-09-04T06:56:41.956Z,88.30
2022-09-04T06:59:33.837Z,88.40
2022-09-04T07:02:26.164Z,87.50
2022-09-04T07:05:20.394Z,87.10
2022-09-04T07:08:22.995Z,86.70
2022-09-04T07:11:37.122Z,86.80
2022-09-04T07:15:01.488Z,85.90
2022-09-04T07:17:47.490Z,85.90
2022-09-04T07:21:11.057Z,85.10
2022-09-04T07:24:01.139Z,83.80
2022-09-04T07:26:58.767Z,83.80
2022-09-04T08:59:52.222Z,65.70
2022-09-04T09:02:52.351Z,66.00
2022-09-04T09:06:24.409Z,65.50
2022-09-04T09:09:06.581Z,64.20
2022-09-04T09:12:10.685Z,63.70
2022-09-04T09:15:15.173Z,63.50
2022-09-04T09:18:02.003Z,62.50
2022-09-04T09:20:45.093Z,61.50
2022-09-04T09:23:52.458Z,61.20
2022-09-04T09:26:38.742Z,60.70
2022-09-04T09:29:36.385Z,60.90
2022-09-04T09:33:01.716Z,60.20
2022-09-04T09:35:38.521Z,59.70
2022-09-04T09:38:20.270Z,59.80
2022-09-04T09:41:30.729Z,59.70
2022-09-04T09:44:22.881Z,58.90
2022-09-04T09:47:21.598Z,59.40
2022-09-04T09:50:28.668Z,58.70
2022-09-04T09:53:37.989Z,56.60
2022-09-04T09:57:11.396Z,58.20
2022-09-04T10:00:05.772Z,57.10
2022-09-04T10:02:54.006Z,57.70
2022-09-04T10:05:56.463Z,56.20
2022-09-04T10:09:09.687Z,55.50
2022-09-04T10:11:51.800Z,54.60
2022-09-04T10:15:10.306Z,53.90
2022-09-04T10:18:33.227Z,53.90
2022-09-04T10:21:52.980Z,52.90
2022-09-04T10:24:44.479Z,52.30
2022-09-04T10:28:01.870Z,53.20
2022-09-04T10:31:07.530Z,54.00
2022-09-04T10:34:13.418Z,53.30
2022-09-04T10:37:04.664Z,52.70
2022-09-04T10:40:18.239Z,53.50
2022-09-04T10:43:15.780Z,52.60
2022-09-04T10:45:51.661Z,52.50
2022-09-04T10:48:59.879Z,51.20
2022-09-04T10:52:32.271Z,50.60
2022-09-04T10:55:36.308Z,50.40
2022-09-04T10:58:41.479Z,50.10
2022-09-04T11:02:01.345Z,50.10
2022-09-04T11:05:07.263Z,49.50
2022-09-04T11:07:46.119Z,49.60
2022-09-04T11:10:56.213Z,48.10
2022-09-04T11:13:56.347Z,47.90
2022-09-04T11:17:03.827Z,47.90
2022-09-04T11:20:26.730Z,47.50
2022-09-04T11:23:30.900Z,47.10
2022-09-04T11:26:39.122Z,47.70
2022-09-04T11:29:25.316Z,47.20
2022-09-04T11:32:27.609Z,46.60
2022-09-04T11:35:29.632Z,45.90
2022-09-04T11:38:05.532Z,46.40
2022-09-04T11:41:11.673Z,46.10
2022-09-04T11:44:08.105Z,47.10
2022-09-04T11:46:59.853Z,46.40
2022-09-04T11:50:06.227Z,46.00
2022-09-04T11:53:15.101Z,45.30
2022-09-04T11:56:10.997Z,45.90
2022-09-04T11:59:01.199Z,45.80
2022-09-04T12:01:30.704Z,45.80
2022-09-04T12:04:32.637Z,46.20
2022-09-04T12:07:42.653Z,45.50
2022-09-04T12:10:34.133Z,45.40
2022-09-04T12:13:14.984Z,45.40
2022-09-04T12:16:27.079Z,45.90
2022-09-04T13:45:11.507Z,46.60
2022-09-04T13:47:57.939Z,46.40
2022-09-04T13:50:36.598Z,46.30
2022-09-04T13:54:11.312Z,46.30
2022-09-04T13:57:05.643Z,46.80
2022-09-04T13:59:33.075Z,46.50
2022-09-04T14:02:08.443Z,46.40
2022-09-04T14:04:43.965Z,46.00
2022-09-04T14:07:20.511Z,45.20
2022-09-04T14:09:53.151Z,45.10
2022-09-04T14:12:53.899Z,44.90
2022-09-04T14:15:39.698Z,45.50
2022-09-04T14:18:21.897Z,43.80
2022-09-04T14:21:06.140Z,44.20
2022-09-04T14:24:09.318Z,44.30
2022-09-04T14:27:19.159Z,43.90
2022-09-04T14:30:17.816Z,43.90
2022-09-04T14:33:19.338Z,44.60
2022-09-04T14:36:21.638Z,43.80
2022-09-04T14:39:24.898Z,43.30
2022-09-04T14:42:42.173Z,43.50
2022-09-04T14:45:46.810Z,43.60
2022-09-04T14:48:17.612Z,43.20
2022-09-04T14:50:53.593Z,43.10
2022-09-04T14:53:34.744Z,42.80
2022-09-04T14:56:33.444Z,42.30
2022-09-04T14:59:28.706Z,41.50
2022-09-04T15:02:14.199Z,41.20
2022-09-04T15:05:07.309Z,41.30
2022-09-04T15:07:42.964Z,41.70
2022-09-04T15:10:37.007Z,41.40
2022-09-04T15:13:50.942Z,42.10
2022-09-04T15:16:32.475Z,42.50
2022-09-04T15:19:30.909Z,42.80
2022-09-04T15:22:21.730Z,42.40
2022-09-04T15:25:03.554Z,42.10
2022-09-04T15:27:54.753Z,42.60
2022-09-04T15:30:35.456Z,42.60
2022-09-04T15:33:11.224Z,42.70
2022-09-04T15:35:40.638Z,42.90
2022-09-04T15:38:25.930Z,42.70
2022-09-04T15:41:15.786Z,42.60
2022-09-04T15:43:55.468Z,42.60
2022-09-04T15:46:43.725Z,42.10
2022-09-04T15:49:38.002Z,42.10
2022-09-04T15:52:38.832Z,42.60
2022-09-04T15:55:24.476Z,42.60
2022-09-04T15:58:05.276Z,42.20
2022-09-04T16:00:40.336Z,42.50
2022-09-04T16:03:27.421Z,42.00
2022-09-04T16:06:03.480Z,41.70
2022-09-04T16:09:06.105Z,41.70
2022-09-04T16:11:46.763Z,41.50
2022-09-04T16:14:44.598Z,41.80
2022-09-04T16:19:58.070Z,41.30
2022-09-04T16:22:56.866Z,42.60
2022-09-04T16:25:32.544Z,41.90
2022-09-04T16:28:25.554Z,41.80
2022-09-04T16:31:11.331Z,42.10
2022-09-04T16:33:44.213Z,42.30
2022-09-04T16:36:51.366Z,42.30
2022-09-04T16:39:32.655Z,42.50
2022-09-04T16:42:23.503Z,42.50
2022-09-04T16:45:06.694Z,42.60
2022-09-04T16:48:34.308Z,42.70
2022-09-04T16:51:09.825Z,42.80
2022-09-04T16:54:41.231Z,42.80
2022-09-04T16:57:21.414Z,43.10
2022-09-04T16:59:55.629Z,43.10
2022-09-04T17:02:36.403Z,42.80
2022-09-04T17:05:35.699Z,42.90
2022-09-04T17:08:38.095Z,43.10
2022-09-04T17:11:22.649Z,43.00
2022-09-04T17:13:58.660Z,43.10
2022-09-04T17:17:04.000Z,43.10
2022-09-04T17:19:39.869Z,43.20
2022-09-04T17:28:57.770Z,43.20
2022-09-04T17:29:00.065Z,43.20
2022-09-04T17:29:41.702Z,43.30
2022-09-04T17:37:13.319Z,43.40
2022-09-04T17:40:49.400Z,43.40
2022-09-04T17:40:54.950Z,43.60
2022-09-04T17:42:22.566Z,43.80
2022-09-04T17:45:21.993Z,44.20
2022-09-04T17:48:21.202Z,44.60
2022-09-04T17:50:57.823Z,44.70
2022-09-04T17:53:34.063Z,45.00
2022-09-04T17:56:48.875Z,45.30
2022-09-04T17:59:31.262Z,45.90
2022-09-04T18:02:40.934Z,46.00
